createdAt,value
2023-05-09T00:04:57.098Z,12.42
2023-05-09T00:07:30.636Z,12.40
2023-05-09T00:10:18.528Z,12.36
2023-05-09T00:25:13.556Z,12.21
2023-05-09T00:28:21.692Z,12.18
2023-05-09T00:31:08.268Z,12.13
2023-05-09T00:33:47.344Z,12.11
2023-05-09T00:42:29.289Z,12.05
2023-05-09T00:45:07.202Z,12.00
2023-05-09T00:57:03.588Z,11.91
2023-05-09T00:59:37.383Z,11.89
2023-05-09T01:02:10.939Z,11.86
2023-05-09T01:04:48.915Z,11.83
2023-05-09T01:11:16.719Z,11.74
2023-05-09T01:31:57.382Z,11.75
2023-05-09T01:41:51.250Z,11.76
2023-05-09T01:47:29.004Z,11.68
2023-05-09T01:50:02.728Z,11.66
2023-05-09T01:52:37.456Z,11.64
2023-05-09T01:58:12.049Z,11.57
2023-05-09T02:00:49.181Z,11.55
2023-05-09T02:03:24.947Z,11.54
2023-05-09T02:09:01.452Z,11.49
2023-05-09T02:11:29.155Z,11.46
2023-05-09T02:13:56.790Z,11.44
2023-05-09T02:16:24.888Z,11.43
2023-05-09T02:18:53.945Z,11.40
2023-05-09T02:21:21.668Z,11.38
2023-05-09T02:23:49.957Z,11.34
2023-05-09T02:26:17.783Z,11.34
2023-05-09T02:28:47.974Z,11.30
2023-05-09T02:31:17.983Z,11.29
2023-05-09T02:33:47.862Z,11.29
2023-05-09T02:36:17.550Z,11.28
2023-05-09T02:38:46.058Z,11.26
2023-05-09T02:41:15.095Z,11.25
2023-05-09T02:43:43.269Z,11.23
2023-05-09T02:46:11.448Z,11.20
2023-05-09T02:48:39.081Z,11.16
2023-05-09T02:51:06.725Z,11.13
2023-05-09T02:53:35.700Z,11.11
2023-05-09T02:56:03.893Z,11.08
2023-05-09T02:58:31.504Z,11.08
2023-05-09T03:00:59.270Z,11.06
2023-05-09T03:03:27.191Z,11.01
2023-05-09T03:05:54.806Z,11.01
2023-05-09T03:08:22.398Z,10.97
2023-05-09T03:10:51.408Z,10.96
2023-05-09T03:13:19.109Z,10.97
2023-05-09T03:15:46.824Z,10.96
2023-05-09T03:18:14.413Z,10.94
2023-05-09T03:20:42.127Z,10.91
2023-05-09T03:23:10.084Z,10.93
2023-05-09T03:25:37.689Z,10.88
2023-05-09T03:28:06.746Z,10.88
2023-05-09T03:30:34.342Z,10.87
2023-05-09T03:33:02.060Z,10.85
2023-05-09T03:35:29.709Z,10.84
2023-05-09T03:37:57.386Z,10.82
2023-05-09T03:40:24.978Z,10.83
2023-05-09T03:42:52.939Z,10.83
2023-05-09T03:45:22.158Z,10.85
2023-05-09T03:47:49.908Z,10.82
2023-05-09T03:50:17.695Z,10.83
2023-05-09T03:52:45.275Z,10.81
2023-05-09T03:55:13.220Z,10.83
2023-05-09T03:57:41.013Z,10.86
2023-05-09T04:00:10.416Z,10.90
2023-05-09T04:02:39.565Z,10.96
2023-05-09T04:05:07.733Z,11.02
2023-05-09T04:07:35.665Z,11.12
2023-05-09T04:10:03.326Z,11.25
2023-05-09T04:12:30.962Z,11.33
2023-05-09T04:14:58.536Z,11.47
2023-05-09T04:17:26.531Z,11.65
2023-05-09T04:19:55.497Z,11.79
2023-05-09T04:22:23.096Z,11.97
2023-05-09T04:24:50.682Z,11.97
2023-05-09T04:27:18.448Z,12.21
2023-05-09T04:29:46.244Z,12.84
2023-05-09T04:32:13.838Z,13.45
2023-05-09T04:34:41.485Z,14.02
2023-05-09T04:37:11.091Z,14.46
2023-05-09T04:39:38.691Z,14.97
2023-05-09T04:42:06.695Z,15.74
2023-05-09T04:44:35.743Z,16.50
2023-05-09T04:47:04.449Z,17.21
2023-05-09T04:49:32.157Z,17.81
2023-05-09T04:51:59.771Z,17.84
2023-05-09T04:54:29.417Z,17.25
2023-05-09T04:57:03.496Z,16.57
2023-05-09T04:59:41.754Z,15.93
2023-05-09T05:02:09.382Z,15.21
2023-05-09T05:04:37.207Z,14.81
2023-05-09T05:07:05.226Z,14.23
2023-05-09T05:09:34.179Z,14.06
2023-05-09T05:12:03.665Z,13.95
2023-05-09T05:14:32.565Z,13.97
2023-05-09T05:17:00.172Z,14.60
2023-05-09T05:19:28.395Z,14.96
2023-05-09T05:21:56.009Z,15.44
2023-05-09T05:24:23.720Z,16.10
2023-05-09T05:26:53.223Z,16.36
2023-05-09T05:29:21.793Z,16.00
2023-05-09T05:31:49.436Z,15.96
2023-05-09T05:34:17.380Z,15.67
2023-05-09T05:36:45.465Z,15.43
2023-05-09T05:39:13.309Z,15.15
2023-05-09T05:41:40.946Z,14.85
2023-05-09T05:44:10.315Z,15.07
2023-05-09T05:46:38.290Z,15.36
2023-05-09T05:49:06.268Z,16.57
2023-05-09T05:51:33.834Z,17.95
2023-05-09T05:54:02.077Z,18.90
2023-05-09T05:56:30.922Z,19.82
2023-05-09T05:58:59.562Z,20.86
2023-05-09T06:01:28.543Z,20.92
2023-05-09T06:03:57.418Z,21.48
2023-05-09T06:06:25.807Z,21.82
2023-05-09T06:08:53.564Z,22.46
2023-05-09T06:11:21.211Z,22.82
2023-05-09T06:13:49.375Z,22.94
2023-05-09T06:16:19.922Z,23.53
2023-05-09T06:18:49.672Z,23.55
2023-05-09T06:21:17.313Z,24.04
2023-05-09T06:24:01.277Z,24.42
2023-05-09T06:26:33.102Z,24.55
2023-05-09T06:29:00.833Z,24.91
2023-05-09T06:31:28.489Z,24.87
2023-05-09T06:33:57.472Z,25.10
2023-05-09T06:36:25.406Z,24.66
2023-05-09T06:38:53.089Z,25.04
2023-05-09T06:41:21.491Z,25.04
2023-05-09T06:43:50.027Z,24.74
2023-05-09T06:46:17.774Z,25.16
2023-05-09T06:48:45.465Z,25.26
2023-05-09T06:51:14.417Z,25.33
2023-05-09T06:53:42.742Z,24.96
2023-05-09T06:56:10.525Z,25.08
2023-05-09T06:58:38.176Z,25.40
2023-05-09T07:01:06.256Z,24.86
2023-05-09T07:03:34.063Z,24.99
2023-05-09T07:06:01.718Z,24.67
2023-05-09T07:08:30.858Z,24.72
2023-05-09T07:10:59.481Z,25.32
2023-05-09T07:13:27.252Z,25.61
2023-05-09T07:15:54.861Z,25.72
2023-05-09T07:18:22.638Z,25.62
2023-05-09T07:20:50.975Z,25.68
2023-05-09T07:23:18.576Z,25.10
2023-05-09T07:25:47.851Z,25.27
2023-05-09T07:28:15.654Z,25.00
2023-05-09T07:30:43.663Z,24.75
2023-05-09T07:33:11.369Z,24.33
2023-05-09T07:35:39.550Z,24.39
2023-05-09T07:38:07.262Z,24.42
2023-05-09T07:40:36.364Z,24.02
2023-05-09T07:43:05.737Z,23.67
2023-05-09T07:45:33.661Z,23.26
2023-05-09T07:48:01.491Z,23.23
2023-05-09T07:50:29.169Z,23.09
2023-05-09T07:52:56.868Z,22.96
2023-05-09T07:55:24.489Z,22.33
2023-05-09T07:57:52.113Z,21.87
2023-05-09T08:00:23.695Z,21.62
2023-05-09T08:02:51.989Z,21.17
2023-05-09T08:05:19.838Z,21.15
2023-05-09T08:07:47.537Z,20.93
2023-05-09T08:10:15.138Z,20.78
2023-05-09T08:12:42.777Z,20.87
2023-05-09T08:15:11.119Z,20.77
2023-05-09T08:17:40.181Z,21.08
2023-05-09T08:20:09.022Z,21.01
2023-05-09T08:22:37.078Z,21.23
2023-05-09T08:25:05.088Z,20.79
2023-05-09T08:27:33.090Z,20.86
2023-05-09T08:30:00.778Z,21.21
2023-05-09T08:32:28.375Z,20.88
2023-05-09T08:34:57.361Z,20.92
2023-05-09T08:37:24.946Z,20.95
2023-05-09T08:39:52.559Z,20.86
2023-05-09T08:42:25.456Z,20.62
2023-05-09T08:44:54.035Z,20.57
2023-05-09T08:47:22.989Z,20.42
2023-05-09T08:49:52.087Z,20.44
2023-05-09T08:52:21.723Z,20.65
2023-05-09T08:54:49.392Z,20.64
2023-05-09T08:57:17.235Z,20.83
2023-05-09T08:59:45.476Z,20.96
2023-05-09T09:02:16.041Z,20.97
2023-05-09T09:04:45.005Z,21.04
2023-05-09T09:07:14.877Z,21.16
2023-05-09T09:09:47.549Z,20.87
2023-05-09T09:12:17.329Z,20.65
2023-05-09T09:14:49.562Z,20.92
2023-05-09T09:17:21.334Z,20.59
2023-05-09T09:19:51.349Z,20.56
2023-05-09T09:22:20.793Z,20.84
2023-05-09T09:24:49.956Z,21.22
2023-05-09T09:27:17.676Z,21.32
2023-05-09T09:29:45.285Z,21.48
2023-05-09T09:32:13.088Z,21.07
2023-05-09T09:34:40.748Z,21.24
2023-05-09T09:37:09.076Z,21.33
2023-05-09T09:39:36.874Z,21.18
2023-05-09T09:42:15.406Z,21.46
2023-05-09T09:44:43.032Z,21.64
2023-05-09T09:47:11.636Z,21.88
2023-05-09T09:49:46.202Z,21.79
2023-05-09T09:52:23.659Z,21.66
2023-05-09T09:54:51.440Z,21.47
2023-05-09T10:00:13.693Z,21.71
2023-05-09T10:02:52.942Z,21.56
2023-05-09T10:05:22.379Z,21.64
2023-05-09T10:07:56.107Z,22.02
2023-05-09T10:10:25.180Z,22.15
2023-05-09T10:12:57.488Z,22.25
2023-05-09T10:15:28.734Z,22.45
2023-05-09T10:18:00.841Z,22.16
2023-05-09T10:20:29.564Z,22.15
2023-05-09T10:22:59.810Z,22.17
2023-05-09T10:25:33.192Z,21.99
2023-05-09T10:28:02.215Z,22.21
2023-05-09T10:30:34.249Z,22.58
2023-05-09T10:33:05.357Z,22.48
2023-05-09T10:35:37.325Z,22.43
2023-05-09T10:38:05.423Z,22.54
2023-05-09T10:40:33.813Z,22.64
2023-05-09T10:43:01.457Z,22.64
2023-05-09T10:45:30.979Z,22.61
2023-05-09T10:47:59.639Z,22.68
2023-05-09T10:50:27.577Z,22.75
2023-05-09T10:53:11.508Z,22.58
2023-05-09T10:55:40.944Z,22.56
2023-05-09T10:58:21.036Z,22.69
2023-05-09T11:00:51.131Z,22.86
2023-05-09T11:03:19.745Z,22.84
2023-05-09T11:05:48.051Z,22.97
2023-05-09T11:08:29.164Z,22.94
2023-05-09T11:10:57.964Z,22.95
2023-05-09T11:13:27.345Z,22.99
2023-05-09T11:16:13.389Z,23.25
2023-05-09T11:18:54.148Z,23.32
2023-05-09T11:21:22.380Z,23.12
2023-05-09T11:23:52.952Z,22.86
2023-05-09T11:26:24.451Z,23.43
2023-05-09T11:28:56.728Z,23.78
2023-05-09T11:31:25.861Z,23.80
2023-05-09T11:34:04.258Z,23.29
2023-05-09T11:36:33.704Z,23.35
2023-05-09T11:39:03.572Z,23.35
2023-05-09T11:41:31.922Z,23.28
2023-05-09T11:44:00.396Z,23.56
2023-05-09T11:46:29.828Z,23.67
2023-05-09T11:48:58.075Z,23.53
2023-05-09T11:51:26.783Z,23.77
2023-05-09T11:53:54.361Z,23.50
2023-05-09T11:56:24.013Z,23.69
2023-05-09T11:58:52.892Z,23.70
2023-05-09T12:01:20.962Z,23.94
2023-05-09T12:03:50.491Z,24.03
2023-05-09T12:06:18.870Z,24.02
2023-05-09T12:08:47.292Z,23.88
2023-05-09T12:11:15.914Z,23.92
2023-05-09T12:13:48.053Z,24.14
2023-05-09T12:16:16.506Z,24.31
2023-05-09T12:18:48.371Z,24.11
2023-05-09T12:21:17.554Z,24.23
2023-05-09T12:23:45.535Z,24.32
2023-05-09T12:26:13.364Z,24.18
2023-05-09T12:28:41.486Z,24.11
2023-05-09T12:31:09.309Z,24.37
2023-05-09T12:33:39.203Z,24.06
2023-05-09T12:36:10.147Z,24.15
2023-05-09T12:38:39.414Z,24.32
2023-05-09T12:41:15.486Z,24.47
2023-05-09T12:43:51.144Z,24.64
2023-05-09T12:46:19.940Z,24.61
2023-05-09T12:48:48.586Z,24.52
2023-05-09T12:51:19.658Z,24.25
2023-05-09T12:53:48.804Z,24.24
2023-05-09T12:56:19.078Z,24.32
2023-05-09T12:58:51.569Z,24.18
2023-05-09T13:01:19.371Z,24.19
2023-05-09T13:03:52.682Z,23.94
2023-05-09T13:06:21.063Z,23.74
2023-05-09T13:09:01.429Z,23.93
2023-05-09T13:11:30.204Z,23.84
2023-05-09T13:13:58.515Z,24.09
2023-05-09T13:16:26.226Z,23.82
2023-05-09T13:18:53.806Z,23.81
2023-05-09T13:21:21.795Z,23.69
2023-05-09T13:23:50.053Z,23.78
2023-05-09T13:26:19.190Z,23.73
2023-05-09T13:28:46.820Z,23.92
2023-05-09T13:31:14.588Z,24.01
2023-05-09T13:33:42.265Z,24.09
2023-05-09T13:36:10.300Z,24.16
2023-05-09T13:38:40.617Z,24.26
2023-05-09T13:41:08.481Z,24.38
2023-05-09T13:43:38.302Z,24.72
2023-05-09T13:46:06.025Z,24.82
2023-05-09T13:48:33.958Z,24.71
2023-05-09T13:51:01.616Z,24.77
2023-05-09T13:53:29.261Z,24.66
2023-05-09T13:55:56.990Z,24.87
2023-05-09T13:58:24.747Z,24.91
2023-05-09T14:00:53.691Z,25.05
2023-05-09T14:03:21.352Z,25.18
2023-05-09T14:05:49.516Z,25.10
2023-05-09T14:08:17.615Z,24.99
2023-05-09T14:10:45.568Z,25.07
2023-05-09T14:13:15.513Z,25.03
2023-05-09T14:15:43.670Z,24.53
2023-05-09T14:18:17.042Z,24.80
2023-05-09T14:20:46.089Z,24.81
2023-05-09T14:23:13.687Z,24.59
2023-05-09T14:25:41.271Z,24.68
2023-05-09T14:28:09.550Z,24.75
2023-05-09T14:30:37.488Z,24.50
2023-05-09T14:33:05.646Z,24.39
2023-05-09T14:35:34.802Z,24.37
2023-05-09T14:38:02.935Z,24.13
2023-05-09T14:40:32.070Z,24.34
2023-05-09T14:43:02.263Z,24.40
2023-05-09T14:45:30.372Z,24.27
2023-05-09T14:47:58.288Z,24.13
2023-05-09T14:50:26.159Z,23.85
2023-05-09T14:52:55.213Z,23.76
2023-05-09T14:55:23.525Z,23.61
2023-05-09T14:57:51.187Z,23.37
2023-05-09T15:00:21.821Z,23.22
2023-05-09T15:02:50.277Z,23.10
2023-05-09T15:05:18.471Z,22.78
2023-05-09T15:07:46.342Z,22.71
2023-05-09T15:10:16.057Z,22.92
2023-05-09T15:12:44.773Z,22.94
2023-05-09T15:15:17.175Z,22.96
2023-05-09T15:17:45.446Z,23.19
2023-05-09T15:20:15.649Z,23.35
2023-05-09T15:22:43.977Z,23.56
2023-05-09T15:25:12.251Z,23.75
2023-05-09T15:27:41.309Z,23.60
2023-05-09T15:30:10.256Z,23.60
2023-05-09T15:32:39.808Z,23.47
2023-05-09T15:35:08.651Z,23.61
2023-05-09T15:37:36.427Z,23.75
2023-05-09T15:40:04.329Z,23.61
2023-05-09T15:42:31.992Z,23.65
2023-05-09T15:45:01.170Z,23.62
2023-05-09T15:47:28.887Z,23.55
2023-05-09T15:49:56.611Z,23.45
2023-05-09T15:52:24.242Z,23.46
2023-05-09T15:54:52.521Z,23.39
2023-05-09T15:57:20.177Z,23.13
2023-05-09T15:59:47.724Z,23.10
2023-05-09T16:02:16.822Z,23.21
2023-05-09T16:04:44.552Z,23.22
2023-05-09T16:07:12.385Z,23.26
2023-05-09T16:09:40.105Z,22.90
2023-05-09T16:12:07.787Z,22.82
2023-05-09T16:14:35.887Z,22.67
2023-05-09T16:17:03.550Z,22.63
2023-05-09T16:19:35.634Z,22.70
2023-05-09T16:22:03.521Z,22.56
2023-05-09T16:24:31.812Z,22.49
2023-05-09T16:26:59.465Z,22.43
2023-05-09T16:29:28.452Z,22.48
2023-05-09T16:31:56.176Z,22.44
2023-05-09T16:34:24.072Z,22.37
2023-05-09T16:36:53.218Z,22.23
2023-05-09T16:39:20.851Z,22.02
2023-05-09T16:41:48.476Z,21.99
2023-05-09T16:44:17.207Z,21.80
2023-05-09T16:46:44.833Z,21.61
2023-05-09T16:49:14.937Z,21.51
2023-05-09T16:51:42.896Z,21.46
2023-05-09T16:54:11.938Z,21.36
2023-05-09T16:56:39.609Z,21.15
2023-05-09T16:59:07.577Z,20.98
2023-05-09T17:01:35.674Z,20.93
2023-05-09T17:04:06.563Z,20.82
2023-05-09T17:06:34.301Z,20.75
2023-05-09T17:09:02.190Z,20.65
2023-05-09T17:11:31.327Z,20.66
2023-05-09T17:13:58.952Z,20.66
2023-05-09T17:16:26.632Z,20.62
2023-05-09T17:18:54.217Z,20.48
2023-05-09T17:21:22.953Z,20.43
2023-05-09T17:23:53.758Z,20.51
2023-05-09T17:26:21.553Z,20.42
2023-05-09T17:28:50.606Z,20.34
2023-05-09T17:31:18.282Z,20.31
2023-05-09T17:33:45.955Z,20.23
2023-05-09T17:36:13.579Z,20.27
2023-05-09T17:38:41.190Z,20.14
2023-05-09T17:41:08.838Z,20.02
2023-05-09T17:43:36.465Z,19.88
2023-05-09T17:46:05.617Z,19.90
2023-05-09T17:48:33.310Z,19.84
2023-05-09T17:51:01.130Z,19.73
2023-05-09T17:53:28.712Z,19.64
2023-05-09T17:55:56.313Z,19.66
2023-05-09T17:58:24.189Z,19.57
2023-05-09T18:00:53.699Z,19.53
2023-05-09T18:03:22.719Z,19.43
2023-05-09T18:05:50.439Z,19.34
2023-05-09T18:08:18.264Z,19.26
2023-05-09T18:10:46.722Z,19.22
2023-05-09T18:13:14.862Z,19.09
2023-05-09T18:15:42.916Z,19.05
2023-05-09T18:18:14.374Z,18.93
2023-05-09T18:20:46.242Z,18.85
2023-05-09T18:23:14.734Z,18.76
2023-05-09T18:25:42.822Z,18.67
2023-05-09T18:28:10.884Z,18.55
2023-05-09T18:30:38.892Z,18.50
2023-05-09T18:33:07.150Z,18.44
2023-05-09T18:35:34.976Z,18.35
2023-05-09T18:38:04.112Z,18.24
2023-05-09T18:40:32.550Z,18.16
2023-05-09T18:43:00.139Z,18.07
2023-05-09T18:45:27.983Z,17.99
2023-05-09T18:47:55.866Z,17.93
2023-05-09T18:50:24.157Z,17.79
2023-05-09T18:52:51.733Z,17.71
2023-05-09T18:55:21.951Z,17.65
2023-05-09T18:57:50.101Z,17.57
2023-05-09T19:00:18.052Z,17.47
2023-05-09T19:02:45.855Z,17.37
2023-05-09T19:05:13.577Z,17.29
2023-05-09T19:07:42.417Z,17.20
2023-05-09T19:10:10.869Z,17.15
2023-05-09T19:12:39.862Z,17.07
2023-05-09T19:15:08.654Z,17.01
2023-05-09T19:17:36.567Z,16.97
2023-05-09T19:20:06.004Z,16.91
2023-05-09T19:22:33.652Z,16.87
2023-05-09T19:25:01.469Z,16.82
2023-05-09T19:27:29.265Z,16.77
2023-05-09T19:29:59.389Z,16.70
2023-05-09T19:32:27.127Z,16.66
2023-05-09T19:34:54.762Z,16.63
2023-05-09T19:37:22.393Z,16.55
2023-05-09T19:39:50.076Z,16.52
2023-05-09T19:42:17.686Z,16.46
2023-05-09T19:44:46.432Z,16.45
2023-05-09T19:47:15.406Z,16.39
2023-05-09T19:49:43.012Z,16.37
2023-05-09T19:52:10.700Z,16.32
2023-05-09T19:54:38.283Z,16.29
2023-05-09T19:57:06.813Z,16.25
2023-05-09T19:59:34.652Z,16.20
2023-05-09T20:02:02.366Z,16.16
2023-05-09T20:04:37.361Z,16.10
2023-05-09T20:07:05.858Z,16.07
2023-05-09T20:09:33.520Z,16.02
2023-05-09T20:12:03.421Z,15.97
2023-05-09T20:14:31.726Z,15.94
2023-05-09T20:16:59.623Z,15.89
2023-05-09T20:19:27.743Z,15.84
2023-05-09T20:21:56.827Z,15.81
2023-05-09T20:24:24.490Z,15.77
2023-05-09T20:26:52.194Z,15.70
2023-05-09T20:29:20.113Z,15.63
2023-05-09T20:31:48.010Z,15.60
2023-05-09T20:34:17.768Z,15.55
2023-05-09T20:36:48.327Z,15.51
2023-05-09T20:39:17.706Z,15.46
2023-05-09T20:41:45.474Z,15.42
2023-05-09T20:44:14.326Z,15.37
2023-05-09T20:46:42.213Z,15.33
2023-05-09T20:49:10.511Z,15.28
2023-05-09T20:51:38.561Z,15.25
2023-05-09T20:54:06.754Z,15.25
2023-05-09T20:56:35.778Z,15.21
2023-05-09T20:59:04.289Z,15.15
2023-05-09T21:01:35.376Z,15.17
2023-05-09T21:04:03.972Z,15.14
2023-05-09T21:06:31.747Z,15.14
2023-05-09T21:08:59.324Z,15.11
2023-05-09T21:11:27.021Z,15.11
2023-05-09T21:13:56.025Z,15.08
2023-05-09T21:16:23.889Z,15.05
2023-05-09T21:18:51.448Z,15.06
2023-05-09T21:21:19.155Z,15.03
2023-05-09T21:23:46.937Z,15.05
2023-05-09T21:26:14.529Z,15.03
2023-05-09T21:28:42.138Z,15.00
2023-05-09T21:31:11.499Z,15.03
2023-05-09T21:33:39.324Z,15.06
2023-05-09T21:36:07.654Z,15.07
2023-05-09T21:38:35.395Z,15.07
2023-05-09T21:41:03.078Z,15.12
2023-05-09T21:43:30.818Z,15.13
2023-05-09T21:45:58.451Z,15.20
2023-05-09T21:48:27.436Z,15.21
2023-05-09T21:50:55.086Z,15.21
2023-05-09T21:53:23.337Z,15.26
2023-05-09T21:55:51.055Z,15.27
2023-05-09T21:58:18.660Z,15.29
2023-05-09T22:00:46.369Z,15.29
2023-05-09T22:03:14.151Z,15.26
2023-05-09T22:05:43.208Z,15.29
2023-05-09T22:08:10.866Z,15.29
2023-05-09T22:10:38.645Z,15.27
2023-05-09T22:13:06.461Z,15.29
2023-05-09T22:15:34.165Z,15.31
2023-05-09T22:18:01.865Z,15.35
2023-05-09T22:20:29.631Z,15.36
2023-05-09T22:22:58.666Z,15.36
2023-05-09T22:25:26.295Z,15.40
2023-05-09T22:27:54.773Z,15.42
2023-05-09T22:30:22.628Z,15.43
2023-05-09T22:32:50.247Z,15.41
2023-05-09T22:35:17.928Z,15.43
2023-05-09T22:37:45.538Z,15.43
2023-05-09T22:40:14.951Z,15.45
2023-05-09T22:42:42.867Z,15.41
2023-05-09T22:45:11.390Z,15.41
2023-05-09T22:47:39.052Z,15.44
2023-05-09T22:50:08.231Z,15.43
2023-05-09T22:52:35.889Z,15.41
2023-05-09T22:55:03.593Z,15.37
2023-05-09T22:57:32.655Z,15.36
2023-05-09T23:00:00.306Z,15.32
2023-05-09T23:02:28.003Z,15.32
2023-05-09T23:04:55.647Z,15.29
2023-05-09T23:07:23.589Z,15.23
2023-05-09T23:09:51.248Z,15.21
2023-05-09T23:12:18.896Z,15.19
2023-05-09T23:14:48.001Z,15.15
2023-05-09T23:17:16.096Z,15.11
2023-05-09T23:19:43.794Z,15.06
2023-05-09T23:22:11.402Z,15.03
2023-05-09T23:24:38.980Z,14.99
2023-05-09T23:27:06.956Z,14.95
2023-05-09T23:29:34.549Z,14.92
2023-05-09T23:32:03.524Z,14.91
2023-05-09T23:34:31.740Z,14.84
2023-05-09T23:36:59.368Z,14.81
2023-05-09T23:39:26.970Z,14.80
2023-05-09T23:41:54.571Z,14.75
2023-05-09T23:44:22.173Z,14.74
2023-05-09T23:46:49.868Z,14.70
2023-05-09T23:49:19.218Z,14.70
2023-05-09T23:51:46.949Z,14.71
2023-05-09T23:54:16.410Z,14.71
2023-05-09T23:56:43.999Z,14.72
2023-05-09T23:59:11.564Z,14.70
